Flight Track Log - Related Links

Times and Time Zones

All times are in EDT time to prevent confusion due to time zone crossing. See the ASQ5678 flight status page for this flight to view local times or setup timezone preferences in your user account.

Time Position Orientation Groundspeed Altitude Reporting Facility
EDT Latitude Longitude Course Direction KTS MPH feet Rate Location/Type
Mon 06:19:22 PM 40.6500 -74.1833 276° West 179 206 1,900  Level New York TRACON
Mon 06:20:22 PM 40.6167 -74.2500 237° Southwest 244 281 3,000 1,650 Climbing New York TRACON
Mon 06:21:00 PM 40.7322 -74.5143 303° West  Level FlightAware Approximate
Mon 06:21:22 PM 40.6333 -74.3333 285° West 257 296 5,200  Level New York TRACON
Mon 06:22:00 PM 40.7442 -74.6358 277° West  Level FlightAware Approximate
Mon 06:22:22 PM 40.6500 -74.4167 285° West 265 305 7,300  Level New York TRACON
Mon 06:23:00 PM 40.7545 -74.7579 276° West  Level FlightAware Approximate
Mon 06:23:22 PM 40.6833 -74.5167 294° West 276 318 9,400  Level New York TRACON
Mon 06:24:00 PM 40.7639 -74.8801 276° West  Level FlightAware Approximate
Mon 06:24:22 PM 40.7000 -74.6167 282° West 287 330 10,800  Level New York TRACON
Mon 06:25:13 PM 40.7186 -74.7164 284° West 326 375 11,400 1,071 Climbing New York Center
Mon 06:26:14 PM 40.7400 -74.8192 285° West 334 384 12,800 1,438 Climbing New York Center
Mon 06:27:14 PM 40.7669 -74.9467 286° West 329 379 14,300 1,412 Climbing New York Center
Mon 06:28:13 PM 40.7919 -75.0606 286° West 329 379 15,600 1,140 Climbing New York Center
Mon 06:29:15 PM 40.7964 -75.1678 273° West 322 371 16,600 984 Climbing New York Center
Mon 06:30:15 PM 40.7706 -75.3006 256° West 334 384 17,600 958 Climbing New York Center
Mon 06:31:14 PM 40.7228 -75.4014 238° Southwest 345 397 18,500 908 Climbing New York Center
Mon 06:32:14 PM 40.6686 -75.5097 237° Southwest 356 410 19,400 992 Climbing New York Center
Mon 06:33:15 PM 40.6244 -75.6244 243° Southwest 362 417 20,500 958 Climbing New York Center
Mon 06:34:13 PM 40.5836 -75.7500 247° West 362 417 21,300 857 Climbing New York Center
Mon 06:35:14 PM 40.5453 -75.8700 247° West 362 417 22,200 843 Climbing New York Center
Mon 06:36:14 PM 40.4975 -76.0086 246° West 374 430 23,000 908 Climbing New York Center
Mon 06:37:13 PM 40.4586 -76.1336 248° West 374 430 24,000 1,008 Climbing New York Center
Mon 06:38:13 PM 40.4194 -76.2561 247° West 374 430 25,000 992 Climbing New York Center
Mon 06:39:14 PM 40.3808 -76.3731 247° West 368 423 26,000 885 Climbing New York Center
Mon 06:40:15 PM 40.3511 -76.4686 248° West 363 418 26,800 1,008 Climbing New York Center
Mon 06:41:13 PM 40.3008 -76.6033 244° Southwest 352 405 28,000 1,119 Climbing New York Center
Mon 06:42:13 PM 40.2558 -76.7111 241° Southwest 346 398 29,000 984 Climbing New York Center
Mon 06:43:15 PM 40.2131 -76.8161 242° Southwest 340 391 30,000 992 Climbing New York Center
Mon 06:44:14 PM 40.1678 -76.9208 241° Southwest 340 391 31,000 1,000 Climbing New York Center
Mon 06:45:15 PM 40.1411 -77.0325 253° West 340 391 32,000 1,008 Climbing New York Center
Mon 06:46:13 PM 40.1433 -77.1497 271° West 320 368 33,000 966 Climbing New York Center
Mon 06:47:13 PM 40.1389 -77.2661 267° West 320 368 33,900 949 Climbing New York Center
Mon 06:49:10 PM 40.1394 -77.4761 270° West 306 352 35,800 712 Climbing Cleveland Center
Mon 06:50:10 PM 40.1406 -77.5928 271° West 311 358 36,000 100 Climbing Cleveland Center
Mon 06:51:10 PM 40.1436 -77.7122 272° West 326 375 36,000  Level Cleveland Center
Mon 06:52:10 PM 40.1489 -77.8425 273° West 340 391 36,000  Level Cleveland Center
Mon 06:53:10 PM 40.1458 -77.9783 268° West 360 414 36,000  Level Cleveland Center
Mon 06:54:10 PM 40.1489 -78.1114 272° West 374 430 36,000  Level Cleveland Center
Mon 06:55:10 PM 40.1514 -78.2417 271° West 374 430 36,000  Level Cleveland Center
Mon 06:56:10 PM 40.1542 -78.3692 272° West 363 418 36,000  Level Cleveland Center
Mon 06:57:10 PM 40.1564 -78.4994 271° West 363 418 36,000  Level Cleveland Center
Mon 06:58:10 PM 40.1733 -78.6294 280° West 363 418 36,000  Level Cleveland Center
Mon 06:59:10 PM 40.2006 -78.7564 286° West 363 418 36,000  Level Cleveland Center
Mon 07:00:10 PM 40.2253 -78.8781 285° West 363 418 36,000  Level Cleveland Center
Mon 07:01:10 PM 40.2522 -79.0000 286° West 356 410 36,000  Level Cleveland Center
Mon 07:02:10 PM 40.2767 -79.1217 285° West 356 410 36,000  Level Cleveland Center
Mon 07:03:10 PM 40.3031 -79.2408 286° West 356 410 36,000  Level Cleveland Center
Mon 07:04:10 PM 40.3317 -79.3711 286° West 351 404 36,000  Level Cleveland Center
Mon 07:05:10 PM 40.3558 -79.4906 285° West 345 397 36,000  Level Cleveland Center
Mon 07:06:10 PM 40.3797 -79.6047 285° West 334 384 36,000  Level Cleveland Center
Mon 07:07:10 PM 40.4036 -79.7217 285° West 334 384 36,000  Level Cleveland Center
Mon 07:08:10 PM 40.4275 -79.8358 285° West 334 384 36,000  Level Cleveland Center
Mon 07:09:10 PM 40.4303 -79.9422 272° West 334 384 36,000  Level Cleveland Center
Mon 07:10:10 PM 40.4142 -80.0842 262° West 341 392 36,000  Level Cleveland Center
Mon 07:11:10 PM 40.4022 -80.2097 263° West 352 405 36,000  Level Cleveland Center
Mon 07:12:10 PM 40.3900 -80.3406 263° West 352 405 36,000  Level Cleveland Center
Mon 07:13:10 PM 40.3819 -80.4550 265° West 352 405 36,000  Level Cleveland Center
Mon 07:14:10 PM 40.3694 -80.5778 262° West 352 405 36,000  Level Cleveland Center
Mon 07:15:10 PM 40.3569 -80.7056 263° West 352 405 36,000  Level Cleveland Center
Mon 07:16:10 PM 40.3442 -80.8336 263° West 352 405 36,000  Level Cleveland Center
Mon 07:17:10 PM 40.3314 -80.9589 262° West 352 405 36,000 -50 Level Cleveland Center
Mon 07:18:10 PM 40.3183 -81.0814 262° West 352 405 35,900 -873 Descending Cleveland Center
Mon 07:19:00 PM 40.3033 -81.2006 261° West 347 399 34,400 -1,018 Descending Indianapolis Center
Mon 07:20:02 PM 40.2908 -81.3258 263° West 346 398 34,000 -194 Descending Indianapolis Center
Mon 07:21:04 PM 40.2761 -81.4567 262° West 356 410 34,000  Level Indianapolis Center
Mon 07:22:05 PM 40.2628 -81.5853 262° West 353 406 34,000  Level Indianapolis Center
Mon 07:23:07 PM 40.2492 -81.7161 262° West 359 413 34,000  Level Indianapolis Center
Mon 07:24:08 PM 40.2353 -81.8467 262° West 354 407 34,000  Level Indianapolis Center
Mon 07:25:10 PM 40.2228 -81.9739 263° West 351 404 34,000  Level Indianapolis Center
Mon 07:26:11 PM 40.2422 -82.1019 281° West 355 409 34,000  Level Indianapolis Center
Mon 07:27:13 PM 40.2611 -82.2292 281° West 356 410 34,000 -390 Level Indianapolis Center
Mon 07:28:14 PM 40.2806 -82.3575 281° West 355 409 33,200 -1,122 Descending Indianapolis Center
Mon 07:29:16 PM 40.2900 -82.4889 275° West 363 418 31,700 -1,065 Descending Indianapolis Center
Mon 07:30:18 PM 40.2386 -82.6061 240° Southwest 374 430 31,000 -341 Descending Indianapolis Center
Mon 07:31:19 PM 40.1569 -82.7117 225° Southwest 354 407 31,000 -293 Level Indianapolis Center
Mon 07:32:21 PM 40.0889 -82.8003 225° Southwest 343 395 30,400 -968 Descending Indianapolis Center
Mon 07:33:23 PM 40.0378 -82.9078 238° Southwest 346 398 29,000 -1,415 Descending Indianapolis Center
Mon 07:34:24 PM 39.9906 -83.0139 240° Southwest 341 392 27,500 -1,415 Descending Indianapolis Center
Mon 07:35:26 PM 39.9456 -83.1161 240° Southwest 329 379 26,100 -1,403 Descending Indianapolis Center
Mon 07:36:28 PM 39.9000 -83.2164 239° Southwest 321 369 24,600 -1,415 Descending Indianapolis Center
Mon 07:37:29 PM 39.8533 -83.3197 240° Southwest 325 374 23,200 -1,415 Descending Indianapolis Center
Mon 07:38:31 PM 39.8056 -83.4206 238° Southwest 321 369 21,700 -1,452 Descending Indianapolis Center
Mon 07:39:33 PM 39.7575 -83.5306 240° Southwest 334 384 20,200 -1,463 Descending Indianapolis Center
Mon 07:40:34 PM 39.7100 -83.6350 239° Southwest 333 383 18,700 -1,707 Descending Indianapolis Center
Mon 07:41:36 PM 39.6636 -83.7444 241° Southwest 340 391 16,700 -1,984 Descending Indianapolis Center
Mon 07:42:38 PM 39.6147 -83.8581 241° Southwest 355 409 14,600 -2,000 Descending Indianapolis Center
Mon 07:43:39 PM 39.5614 -83.9650 237° Southwest 349 402 12,600 -1,756 Descending Indianapolis Center
Mon 07:44:41 PM 39.5072 -84.0706 236° Southwest 350 403 11,000 -1,065 Descending Indianapolis Center
Mon 07:45:43 PM 39.4472 -84.1889 237° Southwest 336 387 10,400 -537 Descending Indianapolis Center
Mon 07:46:44 PM 39.3839 -84.2725 226° Southwest 327 376 9,900 -1,073 Descending Indianapolis Center
Mon 07:47:46 PM 39.3361 -84.3539 233° Southwest 290 334 8,200 -1,707 Descending Indianapolis Center
Mon 07:48:47 PM 39.3031 -84.4406 244° Southwest 271 312 6,400 -1,073 Descending Indianapolis Center
Mon 07:49:49 PM 39.2756 -84.5150 245° Southwest 236 272 6,000 -780 Descending Indianapolis Center
Mon 07:50:50 PM 39.2531 -84.5822 247° West 209 241 4,800 -976 Descending Indianapolis Center
Mon 07:51:52 PM 39.2369 -84.6547 254° West 208 239 4,000 -774 Descending Indianapolis Center

Login

Don't have an account? Register now (free) for customized features, flight alerts, and more!